createdAt,value
2022-07-30T00:00:47.035Z,100510.91
2022-07-30T00:03:15.823Z,100506.50
2022-07-30T00:05:44.514Z,100503.78
2022-07-30T00:08:13.343Z,100513.16
2022-07-30T00:10:41.836Z,100502.97
2022-07-30T00:13:14.222Z,100502.25
2022-07-30T00:15:43.241Z,100505.53
2022-07-30T00:18:12.001Z,100505.00
2022-07-30T00:20:43.579Z,100494.66
2022-07-30T00:23:13.157Z,100490.69
2022-07-30T00:25:41.430Z,100481.59
2022-07-30T00:28:11.732Z,100470.63
2022-07-30T00:30:40.818Z,100478.00
2022-07-30T00:33:09.843Z,100478.22
2022-07-30T00:35:40.019Z,100478.38
2022-07-30T00:38:08.716Z,100471.38
2022-07-30T00:40:37.117Z,100477.56
2022-07-30T00:43:17.527Z,100472.00
2022-07-30T00:45:46.196Z,100469.53
2022-07-30T00:48:15.700Z,100465.38
2022-07-30T00:50:45.267Z,100463.34
2022-07-30T00:53:14.171Z,100458.81
2022-07-30T00:55:46.015Z,100466.22
2022-07-30T00:58:16.288Z,100458.19
2022-07-30T01:00:45.714Z,100461.88
2022-07-30T01:03:20.303Z,100454.03
2022-07-30T01:05:49.248Z,100453.00
2022-07-30T01:08:17.954Z,100446.63
2022-07-30T01:10:46.392Z,100449.31
2022-07-30T01:13:16.653Z,100443.31
2022-07-30T01:15:45.442Z,100440.81
2022-07-30T01:18:15.064Z,100437.88
2022-07-30T01:20:46.407Z,100434.81
2022-07-30T01:23:22.216Z,100430.84
2022-07-30T01:25:56.197Z,100425.50
2022-07-30T01:28:28.958Z,100438.88
2022-07-30T01:30:59.171Z,100439.25
2022-07-30T01:33:29.474Z,100437.44
2022-07-30T01:35:58.986Z,100441.56
2022-07-30T01:38:31.203Z,100435.94
2022-07-30T01:41:05.612Z,100436.94
2022-07-30T01:43:36.809Z,100434.28
2022-07-30T01:46:06.448Z,100424.22
2022-07-30T01:48:38.262Z,100421.16
2022-07-30T01:51:06.788Z,100410.28
2022-07-30T01:53:39.833Z,100406.75
2022-07-30T01:56:11.585Z,100412.75
2022-07-30T01:58:42.438Z,100397.06
2022-07-30T02:01:22.534Z,100400.56
2022-07-30T02:03:51.618Z,100400.97
2022-07-30T02:06:23.026Z,100404.44
2022-07-30T02:08:54.278Z,100404.66
2022-07-30T02:11:39.035Z,100394.50
2022-07-30T02:14:19.421Z,100401.50
2022-07-30T02:16:51.710Z,100395.78
2022-07-30T02:19:32.638Z,100398.44
2022-07-30T02:22:08.495Z,100395.97
2022-07-30T02:24:38.987Z,100394.75
2022-07-30T02:27:12.471Z,100386.72
2022-07-30T02:29:44.469Z,100377.69
2022-07-30T02:32:14.769Z,100376.66
2022-07-30T02:34:47.478Z,100374.81
2022-07-30T02:37:43.328Z,100370.66
2022-07-30T02:40:14.157Z,100354.97
2022-07-30T02:42:46.891Z,100354.53
2022-07-30T02:45:20.970Z,100349.56
2022-07-30T02:47:52.661Z,100346.25
2022-07-30T02:50:23.592Z,100337.78
2022-07-30T02:52:53.375Z,100339.44
2022-07-30T02:55:23.203Z,100336.13
2022-07-30T02:57:54.880Z,100331.41
2022-07-30T03:00:25.259Z,100333.03
2022-07-30T03:02:56.787Z,100333.03
2022-07-30T03:05:26.406Z,100339.03
2022-07-30T03:07:56.595Z,100341.34
2022-07-30T03:10:26.279Z,100335.81
2022-07-30T03:12:57.700Z,100336.63
2022-07-30T03:15:27.771Z,100334.78
2022-07-30T03:17:56.836Z,100334.41
2022-07-30T03:20:29.545Z,100342.63
2022-07-30T03:22:59.966Z,100337.47
2022-07-30T03:25:31.554Z,100334.31
2022-07-30T03:28:05.103Z,100328.53
2022-07-30T03:30:35.046Z,100335.72
2022-07-30T03:33:04.202Z,100329.75
2022-07-30T03:35:32.994Z,100326.44
2022-07-30T03:38:02.813Z,100323.03
2022-07-30T03:40:31.630Z,100326.09
2022-07-30T03:43:00.426Z,100320.38
2022-07-30T03:45:30.556Z,100325.16
2022-07-30T03:48:08.981Z,100329.13
2022-07-30T03:50:40.076Z,100333.47
2022-07-30T03:53:11.247Z,100327.31
2022-07-30T03:55:59.782Z,100334.53
2022-07-30T03:59:03.872Z,100334.97
2022-07-30T04:01:34.007Z,100342.63
2022-07-30T04:04:12.498Z,100348.88
2022-07-30T04:06:43.193Z,100353.44
2022-07-30T04:09:13.540Z,100354.38
2022-07-30T04:11:42.316Z,100365.34
2022-07-30T04:14:15.157Z,100360.63
2022-07-30T04:16:49.881Z,100350.38
2022-07-30T04:19:23.892Z,100350.25
2022-07-30T04:21:55.509Z,100345.56
2022-07-30T04:24:25.252Z,100340.13
2022-07-30T04:26:55.439Z,100340.53
2022-07-30T04:29:24.853Z,100341.59
2022-07-30T04:31:56.560Z,100340.41
2022-07-30T04:34:49.981Z,100335.03
2022-07-30T04:37:25.343Z,100337.03
2022-07-30T04:39:56.203Z,100336.88
2022-07-30T04:42:25.827Z,100342.06
2022-07-30T04:45:08.123Z,100336.13
2022-07-30T04:48:08.556Z,100340.66
2022-07-30T04:50:57.115Z,100336.97
2022-07-30T04:53:27.345Z,100340.81
2022-07-30T04:55:59.646Z,100334.44
2022-07-30T04:58:31.373Z,100337.75
2022-07-30T05:01:02.078Z,100331.56
2022-07-30T05:03:35.802Z,100325.38
2022-07-30T05:06:04.900Z,100328.19
2022-07-30T05:08:38.118Z,100331.28
2022-07-30T05:11:12.973Z,100326.72
2022-07-30T05:13:43.142Z,100333.75
2022-07-30T05:16:16.363Z,100335.97
2022-07-30T05:18:47.284Z,100337.44
2022-07-30T05:21:15.935Z,100336.81
2022-07-30T05:23:50.808Z,100341.19
2022-07-30T05:26:42.473Z,100335.84
2022-07-30T05:29:19.491Z,100330.53
2022-07-30T05:32:11.455Z,100327.25
2022-07-30T05:34:41.640Z,100319.25
2022-07-30T05:37:12.386Z,100312.44
2022-07-30T05:40:02.926Z,100313.25
2022-07-30T05:42:56.676Z,100319.81
2022-07-30T05:45:25.474Z,100318.38
2022-07-30T05:47:55.315Z,100311.34
2022-07-30T05:50:26.333Z,100310.16
2022-07-30T05:52:56.129Z,100322.72
2022-07-30T05:55:43.360Z,100321.88
2022-07-30T05:58:37.007Z,100313.69
2022-07-30T06:01:05.446Z,100316.81
2022-07-30T06:03:35.593Z,100309.00
2022-07-30T06:06:31.668Z,100318.91
2022-07-30T06:09:01.228Z,100328.59
2022-07-30T06:11:30.398Z,100317.03
2022-07-30T06:13:59.128Z,100329.81
2022-07-30T06:16:27.727Z,100327.78
2022-07-30T06:18:57.851Z,100319.63
2022-07-30T06:22:05.301Z,100318.03
2022-07-30T06:24:30.736Z,100319.53
2022-07-30T06:27:06.344Z,100311.69
2022-07-30T06:29:35.061Z,100310.06
2022-07-30T06:32:04.167Z,100312.31
2022-07-30T06:34:32.553Z,100305.91
2022-07-30T06:37:03.747Z,100303.03
2022-07-30T06:39:57.446Z,100296.59
2022-07-30T06:42:21.539Z,100299.88
2022-07-30T06:45:22.483Z,100303.59
2022-07-30T06:48:23.746Z,100297.44
2022-07-30T06:50:53.990Z,100297.88
2022-07-30T06:53:26.705Z,100291.69
2022-07-30T06:56:24.506Z,100281.53
2022-07-30T06:59:00.851Z,100282.56
2022-07-30T07:02:07.990Z,100285.03
2022-07-30T07:04:51.080Z,100283.53
2022-07-30T07:07:37.182Z,100286.75
2022-07-30T07:10:11.496Z,100274.19
2022-07-30T07:12:54.548Z,100268.63
2022-07-30T07:15:36.348Z,100263.59
2022-07-30T07:18:07.535Z,100258.81
2022-07-30T07:20:41.357Z,100264.47
2022-07-30T07:23:12.422Z,100257.91
2022-07-30T07:25:43.385Z,100263.63
2022-07-30T07:28:13.692Z,100270.41
2022-07-30T07:30:45.799Z,100271.13
2022-07-30T07:33:16.398Z,100271.78
2022-07-30T07:35:49.658Z,100273.53
2022-07-30T07:38:28.041Z,100265.88
2022-07-30T07:40:58.653Z,100266.97
2022-07-30T07:43:27.402Z,100271.94
2022-07-30T07:45:58.913Z,100267.50
2022-07-30T07:48:30.409Z,100268.19
2022-07-30T07:51:09.662Z,100258.66
2022-07-30T07:53:39.121Z,100255.44
2022-07-30T07:56:09.644Z,100258.88
2022-07-30T07:58:40.528Z,100245.25
2022-07-30T08:01:11.727Z,100248.72
2022-07-30T08:04:03.303Z,100244.38
2022-07-30T08:07:11.303Z,100246.13
2022-07-30T08:09:58.773Z,100246.59
2022-07-30T08:12:47.379Z,100234.31
2022-07-30T08:15:21.916Z,100236.13
2022-07-30T08:18:11.160Z,100232.06
2022-07-30T08:20:57.422Z,100223.19
2022-07-30T08:23:30.825Z,100224.97
2022-07-30T08:26:00.014Z,100221.84
2022-07-30T08:28:36.055Z,100219.50
2022-07-30T08:31:07.058Z,100217.91
2022-07-30T08:33:35.990Z,100217.59
2022-07-30T08:36:09.745Z,100222.84
2022-07-30T08:38:40.585Z,100226.16
2022-07-30T08:41:10.263Z,100222.28
2022-07-30T08:43:41.115Z,100214.88
2022-07-30T08:46:11.478Z,100217.63
2022-07-30T08:48:56.392Z,100212.75
2022-07-30T08:51:26.257Z,100207.50
2022-07-30T08:54:14.132Z,100215.91
2022-07-30T08:56:43.689Z,100211.66
2022-07-30T08:59:13.986Z,100209.31
2022-07-30T09:01:42.384Z,100207.84
2022-07-30T09:04:11.027Z,100213.00
2022-07-30T09:06:41.009Z,100211.47
2022-07-30T09:09:12.230Z,100221.34
2022-07-30T09:11:43.002Z,100219.59
2022-07-30T09:14:14.687Z,100220.75
2022-07-30T09:16:45.430Z,100223.78
2022-07-30T09:19:16.092Z,100225.22
2022-07-30T09:21:56.703Z,100210.97
2022-07-30T09:24:43.032Z,100213.44
2022-07-30T09:27:45.314Z,100215.28
2022-07-30T09:30:47.351Z,100210.06
2022-07-30T09:33:37.583Z,100209.19
2022-07-30T09:36:33.191Z,100215.19
2022-07-30T09:39:30.187Z,100208.34
2022-07-30T09:42:20.309Z,100205.25
2022-07-30T09:44:49.882Z,100207.91
2022-07-30T09:47:33.921Z,100215.06
2022-07-30T09:50:07.840Z,100206.22
2022-07-30T09:52:37.125Z,100205.69
2022-07-30T09:55:14.457Z,100206.63
2022-07-30T09:57:58.861Z,100214.19
2022-07-30T10:00:30.119Z,100218.28
2022-07-30T10:03:21.786Z,100214.56
2022-07-30T10:06:20.823Z,100215.16
2022-07-30T10:08:51.512Z,100221.16
2022-07-30T10:11:23.619Z,100219.41
2022-07-30T10:13:59.228Z,100229.50
2022-07-30T10:16:29.840Z,100219.53
2022-07-30T10:19:01.684Z,100223.91
2022-07-30T10:22:10.575Z,100225.03
2022-07-30T10:24:59.111Z,100221.41
2022-07-30T10:27:57.758Z,100224.69
2022-07-30T10:30:32.723Z,100227.59
2022-07-30T10:33:02.426Z,100216.16
2022-07-30T10:35:37.936Z,100227.09
2022-07-30T10:38:13.437Z,100232.91
2022-07-30T10:40:49.661Z,100229.38
2022-07-30T10:43:36.471Z,100233.59
2022-07-30T10:46:19.949Z,100227.97
2022-07-30T10:48:51.922Z,100228.84
2022-07-30T10:51:25.439Z,100230.50
2022-07-30T10:54:03.557Z,100228.84
2022-07-30T10:56:32.419Z,100239.75
2022-07-30T10:59:03.348Z,100228.28
2022-07-30T11:02:09.312Z,100235.47
2022-07-30T11:04:39.795Z,100227.53
2022-07-30T11:07:31.999Z,100220.50
2022-07-30T11:10:08.791Z,100225.94
2022-07-30T11:12:54.033Z,100227.28
2022-07-30T11:15:23.699Z,100226.03
2022-07-30T11:18:04.345Z,100219.81
2022-07-30T11:20:34.273Z,100231.22
2022-07-30T11:23:37.682Z,100232.56
2022-07-30T11:26:08.501Z,100220.31
2022-07-30T11:28:45.911Z,100221.00
2022-07-30T11:31:36.997Z,100212.75
2022-07-30T11:34:31.229Z,100217.88
2022-07-30T11:37:18.722Z,100219.31
2022-07-30T11:40:12.873Z,100210.59
2022-07-30T11:42:42.256Z,100216.22
2022-07-30T11:45:27.226Z,100213.34
2022-07-30T11:47:58.547Z,100212.41
2022-07-30T11:50:30.251Z,100208.31
2022-07-30T11:53:02.461Z,100202.75
2022-07-30T11:55:34.352Z,100202.97
2022-07-30T11:58:05.391Z,100205.91
2022-07-30T12:00:36.556Z,100204.47
2022-07-30T12:03:15.632Z,100205.47
2022-07-30T12:05:45.115Z,100197.41
2022-07-30T12:08:31.975Z,100196.38
2022-07-30T12:11:06.160Z,100196.91
2022-07-30T12:13:44.843Z,100200.59
2022-07-30T12:16:18.359Z,100191.97
2022-07-30T12:18:48.435Z,100190.59
2022-07-30T12:21:17.207Z,100184.84
2022-07-30T12:23:55.860Z,100178.56
2022-07-30T12:26:27.445Z,100178.28
2022-07-30T12:28:56.945Z,100169.44
2022-07-30T12:31:27.776Z,100159.88
2022-07-30T12:33:59.125Z,100156.97
2022-07-30T12:36:31.142Z,100160.38
2022-07-30T12:39:00.600Z,100159.88
2022-07-30T12:41:47.476Z,100157.63
2022-07-30T12:44:37.834Z,100152.72
2022-07-30T12:47:07.356Z,100155.63
2022-07-30T12:49:36.890Z,100152.03
2022-07-30T12:52:13.257Z,100154.00
2022-07-30T12:54:47.201Z,100161.06
2022-07-30T12:57:17.512Z,100166.50
2022-07-30T12:59:46.038Z,100173.75
2022-07-30T13:02:14.704Z,100167.16
2022-07-30T13:04:54.781Z,100170.25
2022-07-30T13:07:54.443Z,100176.13
2022-07-30T13:10:27.196Z,100170.59
2022-07-30T13:13:00.517Z,100169.56
2022-07-30T13:15:29.097Z,100166.03
2022-07-30T13:17:57.806Z,100162.91
2022-07-30T13:20:26.678Z,100164.38
2022-07-30T13:23:00.142Z,100162.84
2022-07-30T13:25:38.815Z,100169.84
2022-07-30T13:28:10.776Z,100169.78
2022-07-30T13:30:39.342Z,100172.22
2022-07-30T13:33:08.172Z,100167.22
2022-07-30T13:35:37.170Z,100156.03
2022-07-30T13:38:07.301Z,100155.94
2022-07-30T13:40:36.597Z,100150.13
2022-07-30T13:43:05.485Z,100143.13
2022-07-30T13:45:36.093Z,100129.56
2022-07-30T13:48:05.234Z,100124.09
2022-07-30T13:50:33.981Z,100122.81
2022-07-30T13:53:02.903Z,100118.28
2022-07-30T13:55:31.319Z,100111.94
2022-07-30T13:58:00.756Z,100113.03
2022-07-30T14:00:32.614Z,100117.81
2022-07-30T14:03:04.152Z,100117.81
2022-07-30T14:05:33.347Z,100109.81
2022-07-30T14:08:02.198Z,100101.59
2022-07-30T14:10:30.752Z,100097.44
2022-07-30T14:13:00.457Z,100092.09
2022-07-30T14:15:31.143Z,100080.53
2022-07-30T14:18:02.971Z,100083.84
2022-07-30T14:20:33.559Z,100085.31
2022-07-30T14:23:02.338Z,100078.09
2022-07-30T14:25:32.348Z,100085.53
2022-07-30T14:28:01.479Z,100082.66
2022-07-30T14:30:30.633Z,100085.13
2022-07-30T14:33:04.125Z,100081.97
2022-07-30T14:35:34.883Z,100082.22
2022-07-30T14:38:04.506Z,100075.22
2022-07-30T14:40:35.650Z,100080.97
2022-07-30T14:43:04.628Z,100070.03
2022-07-30T14:45:36.658Z,100072.50
2022-07-30T14:48:06.007Z,100070.03
2022-07-30T14:50:51.245Z,100069.41
2022-07-30T14:53:25.567Z,100068.81
2022-07-30T14:55:54.085Z,100074.75
2022-07-30T14:58:22.935Z,100060.06
2022-07-30T15:00:52.348Z,100059.03
2022-07-30T15:03:22.129Z,100053.84
2022-07-30T15:05:54.318Z,100055.13
2022-07-30T15:08:23.284Z,100055.69
2022-07-30T15:10:51.802Z,100046.59
2022-07-30T15:13:21.008Z,100051.78
2022-07-30T15:15:50.506Z,100039.38
2022-07-30T15:18:19.367Z,100023.03
2022-07-30T15:20:48.141Z,100033.81
2022-07-30T15:23:18.283Z,100025.09
2022-07-30T15:25:48.862Z,100023.19
2022-07-30T15:28:17.919Z,100024.56
2022-07-30T15:30:46.539Z,100019.81
2022-07-30T15:33:15.945Z,100020.00
2022-07-30T15:35:44.815Z,100014.63
2022-07-30T15:38:13.530Z,100009.34
2022-07-30T15:40:43.942Z,100014.97
2022-07-30T15:43:12.588Z,100011.25
2022-07-30T15:45:54.753Z,100012.06
2022-07-30T15:48:27.296Z,100005.03
2022-07-30T15:51:02.041Z,99989.75
2022-07-30T15:53:31.334Z,99990.94
2022-07-30T15:56:02.127Z,99981.41
2022-07-30T15:58:30.630Z,99988.88
2022-07-30T16:00:59.511Z,99987.78
2022-07-30T16:03:32.700Z,99984.97
2022-07-30T16:06:01.321Z,99973.16
2022-07-30T16:08:30.141Z,99973.81
2022-07-30T16:11:03.797Z,99979.84
2022-07-30T16:13:34.254Z,99976.56
2022-07-30T16:16:02.907Z,99968.66
2022-07-30T16:18:31.729Z,99971.78
2022-07-30T16:21:01.465Z,99972.78
2022-07-30T16:23:36.399Z,99968.66
2022-07-30T16:26:05.612Z,99970.19
2022-07-30T16:28:35.359Z,99970.88
2022-07-30T16:31:04.298Z,99965.06
2022-07-30T16:33:33.778Z,99967.34
2022-07-30T16:36:02.426Z,99960.75
2022-07-30T16:38:31.252Z,99972.59
2022-07-30T16:41:01.721Z,99967.63
2022-07-30T16:43:32.007Z,99960.19
2022-07-30T16:46:02.164Z,99961.22
2022-07-30T16:48:33.855Z,99954.47
2022-07-30T16:51:02.538Z,99957.34
2022-07-30T16:53:31.310Z,99953.63
2022-07-30T16:56:00.842Z,99952.41
2022-07-30T16:58:31.089Z,99960.66
2022-07-30T17:01:01.653Z,99968.09
2022-07-30T17:03:30.521Z,99969.13
2022-07-30T17:06:00.787Z,99963.16
2022-07-30T17:08:29.621Z,99968.09
2022-07-30T17:10:58.962Z,99972.47
2022-07-30T17:13:27.343Z,99978.47
2022-07-30T17:15:56.040Z,99984.22
2022-07-30T17:18:26.123Z,99978.47
2022-07-30T17:20:55.119Z,99980.97
2022-07-30T17:23:23.864Z,99981.81
2022-07-30T17:25:52.282Z,99976.53
2022-07-30T17:28:26.917Z,99983.38
2022-07-30T17:30:56.090Z,99975.34
2022-07-30T17:33:26.231Z,99973.31
2022-07-30T17:35:55.009Z,99978.50
2022-07-30T17:38:23.691Z,99975.00
2022-07-30T17:40:52.063Z,99976.22
2022-07-30T17:43:22.525Z,99974.59
2022-07-30T17:45:51.213Z,99972.53
2022-07-30T17:48:21.853Z,99973.56
2022-07-30T17:50:51.743Z,99972.53
2022-07-30T17:53:20.377Z,99966.56
2022-07-30T17:55:57.473Z,99961.00
2022-07-30T17:58:26.974Z,99957.47
2022-07-30T18:00:55.953Z,99966.34
2022-07-30T18:03:24.654Z,99962.63
2022-07-30T18:05:57.156Z,99960.38
2022-07-30T18:08:29.233Z,99955.63
2022-07-30T18:10:58.732Z,99953.97
2022-07-30T18:13:27.614Z,99961.19
2022-07-30T18:15:56.464Z,99953.97
2022-07-30T18:18:25.258Z,99949.63
2022-07-30T18:20:55.427Z,99941.59
2022-07-30T18:23:24.114Z,99940.16
2022-07-30T18:26:00.812Z,99943.03
2022-07-30T18:28:31.012Z,99942.81
2022-07-30T18:30:59.637Z,99947.56
2022-07-30T18:33:28.410Z,99946.53
2022-07-30T18:35:58.800Z,99946.13
2022-07-30T18:38:27.254Z,99945.09
2022-07-30T18:41:02.956Z,99947.16
2022-07-30T18:43:32.788Z,99951.66
2022-07-30T18:46:16.740Z,99950.63
2022-07-30T18:48:47.041Z,99949.38
2022-07-30T18:51:17.590Z,99952.69
2022-07-30T18:53:46.524Z,99959.84
2022-07-30T18:56:15.157Z,99962.50
2022-07-30T18:58:43.930Z,99966.22
2022-07-30T19:01:12.865Z,99971.56
2022-07-30T19:03:41.572Z,99957.16
2022-07-30T19:06:10.641Z,99947.25
2022-07-30T19:08:40.780Z,99956.13
2022-07-30T19:11:09.603Z,99940.44
2022-07-30T19:13:40.095Z,99941.66
2022-07-30T19:16:10.045Z,99932.97
2022-07-30T19:18:38.799Z,99924.31
2022-07-30T19:21:10.071Z,99923.50
2022-07-30T19:23:44.250Z,99919.56
2022-07-30T19:26:14.682Z,99923.66
2022-07-30T19:28:43.010Z,99917.91
2022-07-30T19:31:11.793Z,99919.56
2022-07-30T19:33:41.590Z,99913.59
2022-07-30T19:36:10.538Z,99913.81
2022-07-30T19:38:42.117Z,99906.16
2022-07-30T19:41:14.116Z,99917.06
2022-07-30T19:43:57.620Z,99904.72
2022-07-30T19:46:27.213Z,99898.16
2022-07-30T19:48:57.701Z,99898.97
2022-07-30T19:52:22.243Z,99885.56
2022-07-30T19:54:16.488Z,99884.31
2022-07-30T19:56:46.874Z,99888.88
2022-07-30T19:59:15.852Z,99881.81
2022-07-30T20:01:44.459Z,99870.50
2022-07-30T20:04:16.566Z,99874.41
2022-07-30T20:06:46.085Z,99871.75
2022-07-30T20:09:16.310Z,99863.94
2022-07-30T20:11:46.415Z,99861.84
2022-07-30T20:14:16.290Z,99856.09
2022-07-30T20:19:36.233Z,99870.06
2022-07-30T20:22:06.581Z,99871.31
2022-07-30T20:24:35.369Z,99891.06
2022-07-30T20:27:35.551Z,99883.03
2022-07-30T20:29:56.171Z,99877.06
2022-07-30T20:32:25.804Z,99882.19
2022-07-30T20:34:54.100Z,99888.97
2022-07-30T20:37:23.531Z,99884.00
2022-07-30T20:39:56.274Z,99884.78
2022-07-30T20:42:26.641Z,99887.22
2022-07-30T20:44:57.038Z,99878.56
2022-07-30T20:47:38.125Z,99892.53
2022-07-30T20:50:09.619Z,99904.50
2022-07-30T20:52:40.416Z,99909.44
2022-07-30T20:55:10.180Z,99912.13
2022-07-30T20:58:00.202Z,99911.91
2022-07-30T21:00:31.687Z,99915.41
2022-07-30T21:03:03.319Z,99933.28
2022-07-30T21:05:32.353Z,99928.72
2022-07-30T21:08:00.918Z,99921.72
2022-07-30T21:10:29.250Z,99912.44
2022-07-30T21:13:07.524Z,99904.56
2022-07-30T21:15:37.187Z,99911.72
2022-07-30T21:18:25.771Z,99898.09
2022-07-30T21:20:56.808Z,99896.84
2022-07-30T21:23:27.077Z,99885.91
2022-07-30T21:26:00.653Z,99887.94
2022-07-30T21:28:35.601Z,99889.19
2022-07-30T21:31:06.925Z,99883.63
2022-07-30T21:33:36.795Z,99882.38
2022-07-30T21:36:10.702Z,99880.91
2022-07-30T21:38:41.920Z,99880.66
2022-07-30T21:41:14.151Z,99876.81
2022-07-30T21:43:45.591Z,99870.81
2022-07-30T21:46:15.440Z,99867.06
2022-07-30T21:48:58.361Z,99867.41
2022-07-30T21:51:28.269Z,99860.63
2022-07-30T21:53:58.840Z,99853.38
2022-07-30T21:56:27.410Z,99844.91
2022-07-30T21:58:57.074Z,99841.81
2022-07-30T22:01:25.772Z,99843.59
2022-07-30T22:04:01.501Z,99832.28
2022-07-30T22:06:34.177Z,99842.53
2022-07-30T22:09:18.589Z,99835.53
2022-07-30T22:12:00.807Z,99829.94
2022-07-30T22:14:31.739Z,99836.94
2022-07-30T22:17:00.542Z,99829.69
2022-07-30T22:19:33.397Z,99832.09
2022-07-30T22:22:05.243Z,99832.09
2022-07-30T22:24:50.739Z,99821.06
2022-07-30T22:27:19.290Z,99827.03
2022-07-30T22:29:55.728Z,99821.44
2022-07-30T22:32:24.715Z,99807.84
2022-07-30T22:34:53.059Z,99802.44
2022-07-30T22:37:22.989Z,99805.63
2022-07-30T22:39:54.192Z,99802.75
2022-07-30T22:42:23.938Z,99797.41
2022-07-30T22:44:55.476Z,99794.63
2022-07-30T22:47:53.905Z,99794.25
2022-07-30T22:50:15.125Z,99797.13
2022-07-30T22:52:58.501Z,99791.19
2022-07-30T22:55:34.800Z,99798.38
2022-07-30T22:58:03.986Z,99798.38
2022-07-30T23:00:34.060Z,99786.50
2022-07-30T23:03:02.675Z,99790.44
2022-07-30T23:05:31.546Z,99785.09
2022-07-30T23:08:04.239Z,99788.78
2022-07-30T23:10:32.802Z,99783.44
2022-07-30T23:12:16.037Z,99871.50
2022-07-30T23:13:01.865Z,99784.47
2022-07-30T23:15:30.799Z,99774.41
2022-07-30T23:18:00.823Z,99781.59
2022-07-30T23:20:29.488Z,99772.13
2022-07-30T23:22:58.172Z,99769.28
2022-07-30T23:25:27.466Z,99772.97
2022-07-30T23:28:07.558Z,99756.38
2022-07-30T23:30:36.216Z,99769.06
2022-07-30T23:33:06.745Z,99766.16
2022-07-30T23:35:35.530Z,99763.09
2022-07-30T23:38:04.199Z,99751.41
2022-07-30T23:40:33.189Z,99756.31
2022-07-30T23:43:01.829Z,99747.09
2022-07-30T23:45:30.826Z,99751.25
2022-07-30T23:48:02.499Z,99753.44
2022-07-30T23:50:34.143Z,99744.28
2022-07-30T23:53:03.628Z,99753.34
2022-07-30T23:55:33.177Z,99753.22
2022-07-30T23:58:01.866Z,99742.38
